createdAt,value
2019-02-02T00:01:01.461Z,99592.85
2019-02-02T00:04:08.635Z,99597.23
2019-02-02T00:07:14.597Z,99594.51
2019-02-02T00:10:20.549Z,99611.04
2019-02-02T00:13:26.388Z,99600.92
2019-02-02T00:16:32.286Z,99607.44
2019-02-02T00:19:39.128Z,99604.83
2019-02-02T00:22:45.196Z,99601.97
2019-02-02T00:25:51.038Z,99598.44
2019-02-02T00:28:57.002Z,99600.65
2019-02-02T00:32:02.981Z,99592.94
2019-02-02T00:35:09.027Z,99592.48
2019-02-02T00:38:15.114Z,99589.03
2019-02-02T00:41:21.062Z,99578.12
2019-02-02T00:44:27.094Z,99580.73
2019-02-02T00:47:32.929Z,99577.85
2019-02-02T00:50:38.865Z,99577.81
2019-02-02T00:53:44.842Z,99582.05
2019-02-02T00:56:50.722Z,99574.05
2019-02-02T00:59:56.707Z,99564.31
2019-02-02T01:03:02.797Z,99565.11
2019-02-02T01:06:08.874Z,99560.81
2019-02-02T01:09:26.059Z,99555.26
2019-02-02T01:12:31.917Z,99565.09
2019-02-02T01:15:37.898Z,99575.56
2019-02-02T01:18:43.812Z,99578.23
2019-02-02T01:21:49.801Z,99586.03
2019-02-02T01:24:55.827Z,99578.75
2019-02-02T01:28:05.281Z,99573.52
2019-02-02T01:31:09.396Z,99569.63
2019-02-02T01:34:15.367Z,99565.16
2019-02-02T01:37:21.264Z,99555.61
2019-02-02T01:40:27.280Z,99553.51
2019-02-02T01:43:33.313Z,99556.23
2019-02-02T01:46:39.318Z,99547.83
2019-02-02T01:49:45.201Z,99538.08
2019-02-02T01:52:51.129Z,99541.80
2019-02-02T01:55:57.021Z,99547.06
2019-02-02T01:59:04.120Z,99541.63
2019-02-02T02:02:10.074Z,99545.13
2019-02-02T02:05:16.242Z,99553.16
2019-02-02T02:08:22.160Z,99554.63
2019-02-02T02:11:28.057Z,99566.96
2019-02-02T02:14:33.917Z,99563.77
2019-02-02T02:17:40.660Z,99566.75
2019-02-02T02:20:46.580Z,99564.33
2019-02-02T02:23:52.551Z,99560.17
2019-02-02T02:26:58.439Z,99562.16
2019-02-02T02:30:04.922Z,99545.44
2019-02-02T02:33:11.426Z,99541.22
2019-02-02T02:36:17.329Z,99543.44
2019-02-02T02:39:23.251Z,99534.18
2019-02-02T02:42:29.334Z,99543.09
2019-02-02T02:45:35.116Z,99549.11
2019-02-02T02:48:41.011Z,99545.90
2019-02-02T02:51:46.880Z,99554.90
2019-02-02T02:54:52.739Z,99558.55
2019-02-02T02:57:58.593Z,99565.20
2019-02-02T03:01:04.813Z,99558.16
2019-02-02T03:04:10.733Z,99569.62
2019-02-02T03:07:19.406Z,99568.42
2019-02-02T03:10:25.176Z,99575.70
2019-02-02T03:13:31.043Z,99583.43
2019-02-02T03:16:36.964Z,99581.14
2019-02-02T03:19:42.876Z,99583.07
2019-02-02T03:22:48.906Z,99575.53
2019-02-02T03:25:55.063Z,99581.61
2019-02-02T03:29:00.996Z,99581.99
2019-02-02T03:32:07.131Z,99587.28
2019-02-02T03:35:14.289Z,99578.84
2019-02-02T03:38:20.138Z,99574.75
2019-02-02T03:41:26.065Z,99571.32
2019-02-02T03:44:31.972Z,99574.26
2019-02-02T03:47:37.784Z,99578.67
2019-02-02T03:50:43.751Z,99577.23
2019-02-02T03:53:49.574Z,99566.94
2019-02-02T03:56:55.413Z,99567.23
2019-02-02T04:00:01.401Z,99571.55
2019-02-02T04:03:07.764Z,99560.67
2019-02-02T04:06:13.695Z,99561.88
2019-02-02T04:09:19.602Z,99553.81
2019-02-02T04:12:25.517Z,99567.48
2019-02-02T04:15:31.455Z,99555.09
2019-02-02T04:18:37.339Z,99554.58
2019-02-02T04:21:43.285Z,99550.72
2019-02-02T04:24:50.338Z,99558.05
2019-02-02T04:27:56.362Z,99567.75
2019-02-02T04:31:02.205Z,99548.98
2019-02-02T04:34:08.165Z,99551.92
2019-02-02T04:37:14.047Z,99555.30
2019-02-02T04:40:20.591Z,99554.25
2019-02-02T04:43:26.666Z,99556.27
2019-02-02T04:46:32.526Z,99551.37
2019-02-02T04:49:38.382Z,99547.08
2019-02-02T04:52:44.333Z,99545.70
2019-02-02T04:55:50.316Z,99546.36
2019-02-02T04:58:56.265Z,99557.98
2019-02-02T05:02:02.130Z,99564.14
2019-02-02T05:05:09.522Z,99558.84
2019-02-02T05:08:15.477Z,99562.91
2019-02-02T05:11:21.376Z,99565.19
2019-02-02T05:14:27.255Z,99570.62
2019-02-02T05:17:33.222Z,99563.92
2019-02-02T05:20:39.075Z,99554.26
2019-02-02T05:23:44.925Z,99555.38
2019-02-02T05:26:50.925Z,99563.81
2019-02-02T05:29:56.882Z,99567.20
2019-02-02T05:33:02.931Z,99566.98
2019-02-02T05:36:08.877Z,99569.56
2019-02-02T05:39:15.052Z,99571.33
2019-02-02T05:42:21.014Z,99567.98
2019-02-02T05:45:26.926Z,99565.63
2019-02-02T05:48:32.878Z,99574.59
2019-02-02T05:51:38.833Z,99583.36
2019-02-02T05:54:44.656Z,99582.25
2019-02-02T05:57:50.589Z,99583.75
2019-02-02T06:00:57.588Z,99590.23
2019-02-02T06:04:03.481Z,99605.41
2019-02-02T06:07:09.425Z,99602.95
2019-02-02T06:10:16.462Z,99604.68
2019-02-02T06:13:22.309Z,99603.89
2019-02-02T06:16:28.262Z,99597.28
2019-02-02T06:19:34.115Z,99603.64
2019-02-02T06:22:39.969Z,99616.84
2019-02-02T06:25:45.821Z,99626.04
2019-02-02T06:28:51.715Z,99630.01
2019-02-02T06:31:57.557Z,99620.74
2019-02-02T06:35:03.518Z,99627.45
2019-02-02T06:38:09.564Z,99632.20
2019-02-02T06:41:15.400Z,99630.00
2019-02-02T06:44:21.360Z,99625.38
2019-02-02T06:47:27.220Z,99634.63
2019-02-02T06:50:33.175Z,99646.45
2019-02-02T06:53:39.157Z,99660.17
2019-02-02T06:56:45.039Z,99657.03
2019-02-02T06:59:51.004Z,99661.09
2019-02-02T07:02:57.236Z,99648.16
2019-02-02T07:06:03.121Z,99646.14
2019-02-02T07:09:10.356Z,99646.38
2019-02-02T07:12:16.331Z,99654.09
2019-02-02T07:15:24.602Z,99669.75
2019-02-02T07:18:30.550Z,99672.08
2019-02-02T07:21:36.469Z,99669.02
2019-02-02T07:24:42.420Z,99663.45
2019-02-02T07:27:48.247Z,99669.65
2019-02-02T07:30:54.233Z,99683.17
2019-02-02T07:34:00.256Z,99676.34
2019-02-02T07:37:06.269Z,99679.67
2019-02-02T07:40:13.466Z,99673.53
2019-02-02T07:43:19.313Z,99677.16
2019-02-02T07:46:25.289Z,99677.86
2019-02-02T07:49:31.228Z,99681.24
2019-02-02T07:52:37.201Z,99684.05
2019-02-02T07:55:43.051Z,99688.17
2019-02-02T07:58:49.011Z,99692.09
2019-02-02T08:01:54.892Z,99688.52
2019-02-02T08:05:00.841Z,99695.52
2019-02-02T08:08:07.269Z,99693.03
2019-02-02T08:11:13.271Z,99693.84
2019-02-02T08:14:20.167Z,99692.62
2019-02-02T08:17:26.119Z,99694.28
2019-02-02T08:20:32.077Z,99695.98
2019-02-02T08:23:37.945Z,99698.31
2019-02-02T08:26:43.902Z,99699.97
2019-02-02T08:29:49.749Z,99701.13
2019-02-02T08:32:55.700Z,99708.48
2019-02-02T08:36:04.076Z,99708.38
2019-02-02T08:39:10.875Z,99719.23
2019-02-02T08:42:16.771Z,99720.53
2019-02-02T08:45:22.971Z,99714.97
2019-02-02T08:48:29.944Z,99710.11
2019-02-02T08:51:35.879Z,99716.35
2019-02-02T08:54:41.738Z,99722.88
2019-02-02T08:57:47.726Z,99723.83
2019-02-02T09:01:03.754Z,99717.86
2019-02-02T09:04:01.378Z,99728.06
2019-02-02T09:07:07.409Z,99722.03
2019-02-02T09:10:16.597Z,99724.67
2019-02-02T09:13:22.560Z,99722.41
2019-02-02T09:16:28.551Z,99718.14
2019-02-02T09:19:34.451Z,99709.45
2019-02-02T09:22:40.520Z,99708.64
2019-02-02T09:25:46.541Z,99704.98
2019-02-02T09:28:52.391Z,99701.48
2019-02-02T09:31:58.424Z,99694.96
2019-02-02T09:35:06.838Z,99710.45
2019-02-02T09:38:12.830Z,99692.49
2019-02-02T09:41:18.735Z,99689.64
2019-02-02T09:44:24.581Z,99670.56
2019-02-02T09:47:30.988Z,99663.11
2019-02-02T09:50:37.065Z,99658.98
2019-02-02T09:53:42.962Z,99650.55
2019-02-02T09:56:48.834Z,99640.05
2019-02-02T09:59:54.678Z,99629.34
2019-02-02T10:03:00.871Z,99633.33
2019-02-02T10:06:06.988Z,99629.28
2019-02-02T10:09:12.939Z,99620.23
2019-02-02T10:12:21.004Z,99603.00
2019-02-02T10:15:26.630Z,99603.53
2019-02-02T10:21:57.221Z,99584.67
2019-02-02T10:25:03.148Z,99586.62
2019-02-02T10:28:09.161Z,99593.94
2019-02-02T10:31:15.139Z,99591.70
2019-02-02T10:34:21.031Z,99586.55
2019-02-02T10:37:26.913Z,99580.17
2019-02-02T10:40:32.801Z,99580.27
2019-02-02T10:43:38.588Z,99577.22
2019-02-02T10:46:44.594Z,99568.63
2019-02-02T10:49:50.483Z,99574.28
2019-02-02T10:52:56.439Z,99572.41
2019-02-02T10:56:02.359Z,99565.97
2019-02-02T10:59:09.105Z,99571.44
2019-02-02T11:02:17.744Z,99557.79
2019-02-02T11:05:22.606Z,99555.51
2019-02-02T11:08:28.495Z,99553.41
2019-02-02T11:11:34.298Z,99544.55
2019-02-02T11:14:40.082Z,99541.56
2019-02-02T11:17:46.091Z,99550.48
2019-02-02T11:20:51.934Z,99542.48
2019-02-02T11:23:57.972Z,99535.06
2019-02-02T11:27:04.243Z,99544.37
2019-02-02T11:30:11.856Z,99549.45
2019-02-02T11:33:17.644Z,99543.48
2019-02-02T11:36:23.527Z,99536.10
2019-02-02T11:39:29.326Z,99537.17
2019-02-02T11:42:35.347Z,99532.75
2019-02-02T11:45:41.344Z,99527.92
2019-02-02T11:48:47.165Z,99521.56
2019-02-02T11:51:53.117Z,99517.80
2019-02-02T11:54:58.928Z,99513.17
2019-02-02T11:58:04.842Z,99504.03
2019-02-02T12:01:10.705Z,99495.32
2019-02-02T12:04:16.500Z,99486.70
2019-02-02T12:07:22.272Z,99490.86
2019-02-02T12:10:28.759Z,99489.19
2019-02-02T12:13:34.570Z,99495.91
2019-02-02T12:16:40.433Z,99498.39
2019-02-02T12:19:46.204Z,99500.23
2019-02-02T12:22:52.189Z,99503.44
2019-02-02T12:25:58.260Z,99503.09
2019-02-02T12:29:04.349Z,99501.50
2019-02-02T12:32:10.318Z,99497.09
2019-02-02T12:35:18.714Z,99496.87
2019-02-02T12:38:24.629Z,99494.11
2019-02-02T12:41:30.569Z,99496.95
2019-02-02T12:44:36.476Z,99487.42
2019-02-02T12:47:43.397Z,99491.00
2019-02-02T12:50:49.371Z,99491.27
2019-02-02T12:53:55.841Z,99496.98
2019-02-02T12:57:01.899Z,99495.41
2019-02-02T13:00:11.616Z,99491.59
2019-02-02T13:03:17.659Z,99492.47
2019-02-02T13:06:23.502Z,99496.94
2019-02-02T13:09:29.265Z,99498.02
2019-02-02T13:12:36.830Z,99483.53
2019-02-02T13:15:42.634Z,99474.74
2019-02-02T13:18:48.468Z,99463.43
2019-02-02T13:21:54.403Z,99469.59
2019-02-02T13:25:00.358Z,99458.69
2019-02-02T13:28:06.436Z,99450.17
2019-02-02T13:31:12.216Z,99457.36
2019-02-02T13:34:17.985Z,99463.45
2019-02-02T13:37:24.187Z,99460.31
2019-02-02T13:40:30.103Z,99465.47
2019-02-02T13:43:35.918Z,99468.03
2019-02-02T13:46:41.720Z,99464.84
2019-02-02T13:49:47.509Z,99474.64
2019-02-02T13:52:53.724Z,99471.67
2019-02-02T13:55:59.611Z,99476.72
2019-02-02T13:59:05.615Z,99469.66
2019-02-02T14:02:12.506Z,99474.45
2019-02-02T14:05:18.948Z,99483.97
2019-02-02T14:08:24.720Z,99488.88
2019-02-02T14:11:30.500Z,99495.46
2019-02-02T14:14:36.394Z,99497.78
2019-02-02T14:17:42.244Z,99490.55
2019-02-02T14:20:49.507Z,99491.23
2019-02-02T14:23:55.273Z,99491.39
2019-02-02T14:27:01.087Z,99488.79
2019-02-02T14:30:13.007Z,99489.73
2019-02-02T14:33:19.250Z,99492.70
2019-02-02T14:36:25.011Z,99494.00
2019-02-02T14:39:30.761Z,99483.84
2019-02-02T14:42:36.532Z,99488.75
2019-02-02T14:45:42.285Z,99488.75
2019-02-02T14:48:48.070Z,99487.09
2019-02-02T14:51:53.994Z,99487.58
2019-02-02T14:54:59.828Z,99487.59
2019-02-02T14:58:06.259Z,99495.47
2019-02-02T15:01:12.022Z,99497.79
2019-02-02T15:04:17.934Z,99495.33
2019-02-02T15:07:23.685Z,99494.69
2019-02-02T15:10:29.506Z,99481.08
2019-02-02T15:13:35.248Z,99480.40
2019-02-02T15:16:41.058Z,99484.67
2019-02-02T15:19:46.819Z,99473.53
2019-02-02T15:22:52.879Z,99473.87
2019-02-02T15:25:58.616Z,99480.25
2019-02-02T15:29:04.502Z,99491.08
2019-02-02T15:32:10.986Z,99483.34
2019-02-02T15:35:17.146Z,99477.29
2019-02-02T15:38:23.048Z,99479.42
2019-02-02T15:41:29.059Z,99479.25
2019-02-02T15:44:34.951Z,99480.34
2019-02-02T15:47:40.724Z,99473.63
2019-02-02T15:50:46.775Z,99468.81
2019-02-02T15:53:52.780Z,99474.18
2019-02-02T15:56:58.593Z,99471.92
2019-02-02T16:00:05.061Z,99484.73
2019-02-02T16:03:12.375Z,99484.78
2019-02-02T16:06:18.251Z,99486.59
2019-02-02T16:09:24.143Z,99485.88
2019-02-02T16:12:30.337Z,99482.16
2019-02-02T16:15:36.143Z,99476.77
2019-02-02T16:18:41.888Z,99477.09
2019-02-02T16:21:47.676Z,99479.05
2019-02-02T16:24:53.503Z,99482.16
2019-02-02T16:27:59.415Z,99488.47
2019-02-02T16:31:05.322Z,99493.83
2019-02-02T16:34:11.284Z,99494.88
2019-02-02T16:37:17.128Z,99499.91
2019-02-02T16:40:24.695Z,99495.98
2019-02-02T16:43:30.487Z,99493.27
2019-02-02T16:46:36.518Z,99499.72
2019-02-02T16:49:42.332Z,99498.38
2019-02-02T16:52:48.558Z,99497.70
2019-02-02T16:55:54.356Z,99499.80
2019-02-02T16:59:00.141Z,99512.40
2019-02-02T17:02:06.104Z,99501.28
2019-02-02T17:05:12.238Z,99496.62
2019-02-02T17:08:18.027Z,99502.70
2019-02-02T17:11:23.801Z,99503.73
2019-02-02T17:14:29.600Z,99513.23
2019-02-02T17:17:35.421Z,99507.49
2019-02-02T17:20:43.524Z,99504.50
2019-02-02T17:23:49.297Z,99501.67
2019-02-02T17:26:55.165Z,99506.19
2019-02-02T17:30:01.003Z,99511.69
2019-02-02T17:33:11.061Z,99516.02
2019-02-02T17:36:16.816Z,99511.45
2019-02-02T17:39:22.599Z,99498.63
2019-02-02T17:42:28.352Z,99509.59
2019-02-02T17:45:34.247Z,99517.30
2019-02-02T17:48:40.012Z,99519.47
2019-02-02T17:51:45.995Z,99521.29
2019-02-02T17:54:51.777Z,99519.84
2019-02-02T17:57:57.695Z,99506.42
2019-02-02T18:01:03.751Z,99504.48
2019-02-02T18:04:09.612Z,99500.27
2019-02-02T18:07:15.568Z,99509.66
2019-02-02T18:10:21.553Z,99516.48
2019-02-02T18:13:27.367Z,99512.50
2019-02-02T18:16:33.299Z,99506.89
2019-02-02T18:19:39.124Z,99496.14
2019-02-02T18:22:45.098Z,99498.27
2019-02-02T18:25:50.904Z,99496.74
2019-02-02T18:28:57.743Z,99509.41
2019-02-02T18:32:12.781Z,99514.42
2019-02-02T18:35:11.935Z,99500.89
2019-02-02T18:38:17.738Z,99492.32
2019-02-02T18:41:23.605Z,99499.45
2019-02-02T18:44:29.397Z,99511.05
2019-02-02T18:47:35.162Z,99517.03
2019-02-02T18:50:40.936Z,99528.66
2019-02-02T18:53:46.808Z,99514.26
2019-02-02T18:56:53.075Z,99517.81
2019-02-02T18:59:59.553Z,99521.91
2019-02-02T19:03:11.329Z,99521.91
2019-02-02T19:06:18.359Z,99522.53
2019-02-02T19:09:25.704Z,99525.26
2019-02-02T19:12:31.996Z,99521.30
2019-02-02T19:15:37.881Z,99527.64
2019-02-02T19:18:43.688Z,99537.73
2019-02-02T19:21:49.457Z,99534.55
2019-02-02T19:24:55.212Z,99529.82
2019-02-02T19:28:01.029Z,99534.13
2019-02-02T19:31:07.252Z,99533.55
2019-02-02T19:34:13.024Z,99529.27
2019-02-02T19:37:21.061Z,99536.51
2019-02-02T19:40:26.466Z,99546.05
2019-02-02T19:43:32.396Z,99537.22
2019-02-02T19:46:38.231Z,99541.61
2019-02-02T19:49:43.999Z,99545.69
2019-02-02T19:52:50.129Z,99542.14
2019-02-02T19:55:56.065Z,99537.52
2019-02-02T19:59:01.923Z,99529.88
2019-02-02T20:02:07.781Z,99530.13
2019-02-02T20:05:14.283Z,99524.70
2019-02-02T20:08:20.040Z,99528.49
2019-02-02T20:11:25.857Z,99540.42
2019-02-02T20:14:31.662Z,99541.14
2019-02-02T20:17:37.532Z,99536.70
2019-02-02T20:20:43.487Z,99532.00
2019-02-02T20:23:49.272Z,99531.16
2019-02-02T20:26:55.066Z,99532.89
2019-02-02T20:30:00.863Z,99528.63
2019-02-02T20:33:07.026Z,99533.55
2019-02-02T20:36:13.928Z,99541.25
2019-02-02T20:39:19.705Z,99544.70
2019-02-02T20:42:25.475Z,99544.63
2019-02-02T20:45:33.444Z,99542.74
2019-02-02T20:48:39.253Z,99545.94
2019-02-02T20:51:45.036Z,99539.05
2019-02-02T20:54:50.862Z,99545.51
2019-02-02T20:57:56.739Z,99552.35
2019-02-02T21:01:02.523Z,99546.11
2019-02-02T21:04:08.765Z,99547.31
2019-02-02T21:07:14.618Z,99548.95
2019-02-02T21:10:21.804Z,99551.93
2019-02-02T21:13:27.571Z,99543.31
2019-02-02T21:16:33.347Z,99549.34
2019-02-02T21:19:39.166Z,99551.06
2019-02-02T21:22:45.027Z,99552.53
2019-02-02T21:25:50.821Z,99543.07
2019-02-02T21:28:56.713Z,99541.29
2019-02-02T21:32:02.509Z,99547.30
2019-02-02T21:35:08.465Z,99554.34
2019-02-02T21:38:14.570Z,99547.95
2019-02-02T21:41:20.385Z,99554.19
2019-02-02T21:44:26.158Z,99554.81
2019-02-02T21:47:33.147Z,99545.56
2019-02-02T21:50:38.908Z,99562.58
2019-02-02T21:53:44.709Z,99557.09
2019-02-02T21:56:50.602Z,99541.75
2019-02-02T21:59:56.765Z,99535.09
2019-02-02T22:03:02.625Z,99550.01
2019-02-02T22:06:15.655Z,99543.78
2019-02-02T22:09:16.785Z,99548.77
2019-02-02T22:12:23.027Z,99551.42
2019-02-02T22:15:29.521Z,99546.91
2019-02-02T22:18:35.378Z,99550.94
2019-02-02T22:21:41.492Z,99552.98
2019-02-02T22:24:47.259Z,99550.08
2019-02-02T22:27:53.470Z,99554.38
2019-02-02T22:31:00.368Z,99555.89
2019-02-02T22:34:06.215Z,99557.36
2019-02-02T22:37:12.150Z,99560.98
2019-02-02T22:40:20.356Z,99563.99
2019-02-02T22:43:26.175Z,99564.86
2019-02-02T22:46:32.252Z,99570.65
2019-02-02T22:49:38.111Z,99569.09
2019-02-02T22:52:44.081Z,99569.06
2019-02-02T22:55:49.848Z,99578.30
2019-02-02T22:58:55.661Z,99577.75
2019-02-02T23:02:07.856Z,99572.60
2019-02-02T23:05:51.366Z,99572.08
2019-02-02T23:09:34.002Z,99576.66
2019-02-02T23:13:10.859Z,99576.64
2019-02-02T23:16:30.173Z,99569.33
2019-02-02T23:19:36.066Z,99571.03
2019-02-02T23:22:41.938Z,99573.28
2019-02-02T23:25:47.697Z,99572.19
2019-02-02T23:28:53.577Z,99576.97
2019-02-02T23:31:59.975Z,99574.42
2019-02-02T23:35:06.244Z,99565.16
2019-02-02T23:38:12.005Z,99568.57
2019-02-02T23:41:17.913Z,99571.39
2019-02-02T23:44:23.855Z,99581.32
2019-02-02T23:47:29.708Z,99575.03
2019-02-02T23:50:35.508Z,99569.06
2019-02-02T23:53:41.567Z,99567.75
2019-02-02T23:56:47.550Z,99570.44
2019-02-02T23:59:53.319Z,99569.98
